createdAt,value
2019-01-08T00:00:52.195Z,894.23
2019-01-08T00:01:52.179Z,894.18
2019-01-08T00:02:52.161Z,894.20
2019-01-08T00:03:52.134Z,894.18
2019-01-08T00:04:52.120Z,894.12
2019-01-08T00:05:52.099Z,894.09
2019-01-08T00:06:52.075Z,894.07
2019-01-08T00:07:52.056Z,894.05
2019-01-08T00:08:52.032Z,894.04
2019-01-08T00:09:52.014Z,893.95
2019-01-08T00:10:51.997Z,893.94
2019-01-08T00:11:51.981Z,893.93
2019-01-08T00:12:51.957Z,893.93
2019-01-08T00:13:51.936Z,893.84
2019-01-08T00:14:51.927Z,893.85
2019-01-08T00:15:51.898Z,893.80
2019-01-08T00:16:51.905Z,893.80
2019-01-08T00:17:51.859Z,893.77
2019-01-08T00:18:51.844Z,893.76
2019-01-08T00:19:51.825Z,893.79
2019-01-08T00:20:51.798Z,893.77
2019-01-08T00:21:51.781Z,893.78
2019-01-08T00:22:51.756Z,893.77
2019-01-08T00:23:51.741Z,893.76
2019-01-08T00:24:51.721Z,893.74
2019-01-08T00:25:51.706Z,893.73
2019-01-08T00:26:51.678Z,893.71
2019-01-08T00:27:51.660Z,893.74
2019-01-08T00:28:51.640Z,893.73
2019-01-08T00:29:51.620Z,893.76
2019-01-08T00:30:51.600Z,893.76
2019-01-08T00:31:51.596Z,893.75
2019-01-08T00:32:51.563Z,893.74
2019-01-08T00:33:51.545Z,893.72
2019-01-08T00:34:51.522Z,893.74
2019-01-08T00:35:51.500Z,893.73
2019-01-08T00:36:51.481Z,893.74
2019-01-08T00:37:51.462Z,893.72
2019-01-08T00:38:51.447Z,893.71
2019-01-08T00:39:51.420Z,893.74
2019-01-08T00:40:51.405Z,893.74
2019-01-08T00:41:51.383Z,893.70
2019-01-08T00:42:51.363Z,893.73
2019-01-08T00:43:51.349Z,893.77
2019-01-08T00:44:51.321Z,893.77
2019-01-08T00:45:51.305Z,893.76
2019-01-08T00:46:51.285Z,893.74
2019-01-08T00:47:51.277Z,893.78
2019-01-08T00:48:51.243Z,893.79
2019-01-08T00:49:51.232Z,893.84
2019-01-08T00:50:51.209Z,893.78
2019-01-08T00:51:51.186Z,893.78
2019-01-08T00:52:51.166Z,893.75
2019-01-08T00:53:51.150Z,893.74
2019-01-08T00:54:51.128Z,893.66
2019-01-08T00:55:51.111Z,893.65
2019-01-08T00:56:51.089Z,893.64
2019-01-08T00:57:51.085Z,893.61
2019-01-08T00:58:51.631Z,893.62
2019-01-08T00:59:51.046Z,893.59
2019-01-08T01:00:51.015Z,893.59
2019-01-08T01:01:50.995Z,893.59
2019-01-08T01:02:50.968Z,893.61
2019-01-08T01:03:50.948Z,893.61
2019-01-08T01:04:50.932Z,893.64
2019-01-08T01:05:50.916Z,893.65
2019-01-08T01:06:50.900Z,893.59
2019-01-08T01:07:50.875Z,893.58
2019-01-08T01:08:50.855Z,893.53
2019-01-08T01:09:50.832Z,893.54
2019-01-08T01:10:50.825Z,893.54
2019-01-08T01:11:50.790Z,893.49
2019-01-08T01:12:50.776Z,893.50
2019-01-08T01:13:50.753Z,893.43
2019-01-08T01:14:50.731Z,893.41
2019-01-08T01:15:50.715Z,893.39
2019-01-08T01:16:50.695Z,893.36
2019-01-08T01:17:50.675Z,893.32
2019-01-08T01:18:50.658Z,893.34
2019-01-08T01:19:50.641Z,893.26
2019-01-08T01:20:50.618Z,893.23
2019-01-08T01:21:50.596Z,893.19
2019-01-08T01:22:50.581Z,893.18
2019-01-08T01:23:50.565Z,893.14
2019-01-08T01:24:50.546Z,893.11
2019-01-08T01:25:50.518Z,893.11
2019-01-08T01:26:50.506Z,893.05
2019-01-08T01:27:50.480Z,893.06
2019-01-08T01:28:50.466Z,893.07
2019-01-08T01:29:50.442Z,893.07
2019-01-08T01:30:50.426Z,893.04
2019-01-08T01:31:50.402Z,893.01
2019-01-08T01:32:50.383Z,892.96
2019-01-08T01:33:50.367Z,893.00
2019-01-08T01:34:50.340Z,892.96
2019-01-08T01:35:50.318Z,892.93
2019-01-08T01:36:50.298Z,892.90
2019-01-08T01:37:50.282Z,892.85
2019-01-08T01:38:50.262Z,892.89
2019-01-08T01:39:50.237Z,892.80
2019-01-08T01:40:50.223Z,892.83
2019-01-08T01:41:50.206Z,892.74
2019-01-08T01:42:50.175Z,892.76
2019-01-08T01:43:50.164Z,892.73
2019-01-08T01:44:50.143Z,892.68
2019-01-08T01:45:50.119Z,892.65
2019-01-08T01:46:50.098Z,892.61
2019-01-08T01:47:50.084Z,892.59
2019-01-08T01:48:50.064Z,892.59
2019-01-08T01:49:50.050Z,892.57
2019-01-08T01:50:50.025Z,892.56
2019-01-08T01:51:50.014Z,892.57
2019-01-08T01:52:49.991Z,892.52
2019-01-08T01:53:49.967Z,892.51
2019-01-08T01:54:49.946Z,892.49
2019-01-08T01:55:49.927Z,892.46
2019-01-08T01:56:49.905Z,892.50
2019-01-08T01:57:49.891Z,892.45
2019-01-08T01:58:49.867Z,892.44
2019-01-08T01:59:49.842Z,892.41
2019-01-08T02:00:49.827Z,892.41
2019-01-08T02:01:49.811Z,892.37
2019-01-08T02:02:49.792Z,892.38
2019-01-08T02:03:49.772Z,892.33
2019-01-08T02:04:49.755Z,892.34
2019-01-08T02:05:49.734Z,892.31
2019-01-08T02:06:49.718Z,892.33
2019-01-08T02:07:49.696Z,892.34
2019-01-08T02:08:49.674Z,892.35
2019-01-08T02:09:49.657Z,892.32
2019-01-08T02:10:49.634Z,892.30
2019-01-08T02:11:49.615Z,892.28
2019-01-08T02:12:49.598Z,892.24
2019-01-08T02:13:49.582Z,892.24
2019-01-08T02:14:49.558Z,892.22
2019-01-08T02:15:49.534Z,892.23
2019-01-08T02:16:49.522Z,892.18
2019-01-08T02:17:49.501Z,892.18
2019-01-08T02:18:49.477Z,892.17
2019-01-08T02:19:49.466Z,892.15
2019-01-08T02:20:49.450Z,892.10
2019-01-08T02:21:49.422Z,892.09
2019-01-08T02:22:49.401Z,892.07
2019-01-08T02:23:49.381Z,892.04
2019-01-08T02:24:49.363Z,892.01
2019-01-08T02:25:49.347Z,892.03
2019-01-08T02:26:49.324Z,892.06
2019-01-08T02:27:49.306Z,892.02
2019-01-08T02:28:49.290Z,892.01
2019-01-08T02:29:49.274Z,892.04
2019-01-08T02:30:49.251Z,892.03
2019-01-08T02:31:49.225Z,891.99
2019-01-08T02:32:49.208Z,891.98
2019-01-08T02:33:49.192Z,891.97
2019-01-08T02:34:49.170Z,891.99
2019-01-08T02:35:49.153Z,891.97
2019-01-08T02:36:49.132Z,891.98
2019-01-08T02:37:49.121Z,891.95
2019-01-08T02:38:49.095Z,891.98
2019-01-08T02:39:49.079Z,891.99
2019-01-08T02:40:49.063Z,892.00
2019-01-08T02:41:49.139Z,892.01
2019-01-08T02:42:49.017Z,892.03
2019-01-08T02:43:48.999Z,891.98
2019-01-08T02:44:49.171Z,891.92
2019-01-08T02:45:48.959Z,891.94
2019-01-08T02:46:49.097Z,891.96
2019-01-08T02:47:48.916Z,891.93
2019-01-08T02:48:48.902Z,891.96
2019-01-08T02:49:48.885Z,891.94
2019-01-08T02:50:48.860Z,891.93
2019-01-08T02:51:48.846Z,891.93
2019-01-08T02:52:48.824Z,891.91
2019-01-08T02:53:48.805Z,891.90
2019-01-08T02:54:48.911Z,891.88
2019-01-08T02:55:48.771Z,891.91
2019-01-08T02:56:48.740Z,891.95
2019-01-08T02:57:48.729Z,891.92
2019-01-08T02:58:48.705Z,891.92
2019-01-08T02:59:48.917Z,891.90
2019-01-08T03:00:48.669Z,891.89
2019-01-08T03:01:48.650Z,891.86
2019-01-08T03:02:48.626Z,891.85
2019-01-08T03:03:48.604Z,891.86
2019-01-08T03:04:48.590Z,891.84
2019-01-08T03:05:48.575Z,891.81
2019-01-08T03:06:48.551Z,891.81
2019-01-08T03:07:48.531Z,891.77
2019-01-08T03:08:48.514Z,891.77
2019-01-08T03:09:48.493Z,891.69
2019-01-08T03:10:48.473Z,891.66
2019-01-08T03:11:48.461Z,891.62
2019-01-08T03:12:48.434Z,891.59
2019-01-08T03:13:48.416Z,891.56
2019-01-08T03:14:48.398Z,891.54
2019-01-08T03:15:48.376Z,891.53
2019-01-08T03:16:48.359Z,891.52
2019-01-08T03:17:48.340Z,891.55
2019-01-08T03:18:48.322Z,891.52
2019-01-08T03:19:48.300Z,891.57
2019-01-08T03:20:48.282Z,891.48
2019-01-08T03:21:48.264Z,891.53
2019-01-08T03:22:48.237Z,891.54
2019-01-08T03:23:48.235Z,891.58
2019-01-08T03:24:48.203Z,891.51
2019-01-08T03:25:48.183Z,891.53
2019-01-08T03:26:48.232Z,891.55
2019-01-08T03:27:48.146Z,891.53
2019-01-08T03:28:48.127Z,891.55
2019-01-08T03:29:48.105Z,891.54
2019-01-08T03:30:48.091Z,891.54
2019-01-08T03:31:48.065Z,891.53
2019-01-08T03:32:48.052Z,891.53
2019-01-08T03:33:48.034Z,891.53
2019-01-08T03:34:48.008Z,891.56
2019-01-08T03:35:47.988Z,891.59
2019-01-08T03:36:47.974Z,891.58
2019-01-08T03:37:47.954Z,891.54
2019-01-08T03:38:47.931Z,891.53
2019-01-08T03:39:47.913Z,891.52
2019-01-08T03:40:47.892Z,891.47
2019-01-08T03:41:47.876Z,891.45
2019-01-08T03:42:47.853Z,891.44
2019-01-08T03:43:47.835Z,891.45
2019-01-08T03:44:47.815Z,891.44
2019-01-08T03:45:47.799Z,891.44
2019-01-08T03:46:47.775Z,891.41
2019-01-08T03:47:47.761Z,891.40
2019-01-08T03:48:47.739Z,891.41
2019-01-08T03:49:47.726Z,891.38
2019-01-08T03:50:47.701Z,891.41
2019-01-08T03:51:47.682Z,891.34
2019-01-08T03:52:47.664Z,891.37
2019-01-08T03:53:47.646Z,891.34
2019-01-08T03:54:47.622Z,891.34
2019-01-08T03:55:47.606Z,891.32
2019-01-08T03:56:47.584Z,891.28
2019-01-08T03:57:47.564Z,891.27
2019-01-08T03:58:47.551Z,891.29
2019-01-08T03:59:47.526Z,891.22
2019-01-08T04:00:47.511Z,891.20
2019-01-08T04:01:47.489Z,891.17
2019-01-08T04:02:47.467Z,891.14
2019-01-08T04:03:47.445Z,891.12
2019-01-08T04:04:47.429Z,891.09
2019-01-08T04:05:47.409Z,891.11
2019-01-08T04:06:47.389Z,891.14
2019-01-08T04:07:47.369Z,891.09
2019-01-08T04:08:47.357Z,891.07
2019-01-08T04:09:47.334Z,891.03
2019-01-08T04:10:47.312Z,891.01
2019-01-08T04:11:47.296Z,890.94
2019-01-08T04:12:47.281Z,890.97
2019-01-08T04:13:47.252Z,890.92
2019-01-08T04:14:47.246Z,890.88
2019-01-08T04:15:47.217Z,890.88
2019-01-08T04:16:47.198Z,890.87
2019-01-08T04:17:47.184Z,890.85
2019-01-08T04:18:47.156Z,890.85
2019-01-08T04:19:47.137Z,890.84
2019-01-08T04:20:47.123Z,890.83
2019-01-08T04:21:47.099Z,890.84
2019-01-08T04:22:47.082Z,890.84
2019-01-08T04:23:47.064Z,890.81
2019-01-08T04:24:47.042Z,890.83
2019-01-08T04:25:47.028Z,890.80
2019-01-08T04:26:47.001Z,890.78
2019-01-08T04:27:46.979Z,890.77
2019-01-08T04:28:46.967Z,890.75
2019-01-08T04:29:50.572Z,890.72
2019-01-08T04:30:46.929Z,890.71
2019-01-08T04:31:46.913Z,890.76
2019-01-08T04:32:46.887Z,890.75
2019-01-08T04:33:46.869Z,890.74
2019-01-08T04:34:46.852Z,890.69
2019-01-08T04:35:46.828Z,890.66
2019-01-08T04:36:46.807Z,890.57
2019-01-08T04:37:46.805Z,890.53
2019-01-08T04:38:46.772Z,890.54
2019-01-08T04:39:46.752Z,890.50
2019-01-08T04:40:46.731Z,890.53
2019-01-08T04:41:46.714Z,890.47
2019-01-08T04:42:46.696Z,890.46
2019-01-08T04:43:46.675Z,890.39
2019-01-08T04:44:46.653Z,890.37
2019-01-08T04:45:46.633Z,890.38
2019-01-08T04:46:46.617Z,890.37
2019-01-08T04:47:46.597Z,890.36
2019-01-08T04:48:46.579Z,890.32
2019-01-08T04:49:46.561Z,890.28
2019-01-08T04:50:46.538Z,890.25
2019-01-08T04:51:46.522Z,890.23
2019-01-08T04:52:46.502Z,890.22
2019-01-08T04:53:46.490Z,890.21
2019-01-08T04:54:46.461Z,890.20
2019-01-08T04:55:46.444Z,890.20
2019-01-08T04:56:46.426Z,890.14
2019-01-08T04:57:46.411Z,890.14
2019-01-08T04:58:46.384Z,890.08
2019-01-08T04:59:46.366Z,890.04
2019-01-08T05:00:46.346Z,890.02
2019-01-08T05:01:46.328Z,890.03
2019-01-08T05:02:46.309Z,889.95
2019-01-08T05:03:46.288Z,889.93
2019-01-08T05:04:46.264Z,889.90
2019-01-08T05:05:46.250Z,889.85
2019-01-08T05:06:46.225Z,889.82
2019-01-08T05:07:46.216Z,889.83
2019-01-08T05:08:46.191Z,889.80
2019-01-08T05:09:46.177Z,889.77
2019-01-08T05:10:46.159Z,889.74
2019-01-08T05:11:46.135Z,889.71
2019-01-08T05:12:47.993Z,889.70
2019-01-08T05:13:46.095Z,889.71
2019-01-08T05:14:46.078Z,889.69
2019-01-08T05:15:46.064Z,889.65
2019-01-08T05:16:46.040Z,889.66
2019-01-08T05:17:46.018Z,889.63
2019-01-08T05:18:46.003Z,889.61
2019-01-08T05:19:45.980Z,889.54
2019-01-08T05:20:45.967Z,889.50
2019-01-08T05:21:45.951Z,889.52
2019-01-08T05:22:47.115Z,889.53
2019-01-08T05:23:45.901Z,889.50
2019-01-08T05:24:45.890Z,889.50
2019-01-08T05:25:45.868Z,889.48
2019-01-08T05:26:45.846Z,889.43
2019-01-08T05:27:45.827Z,889.43
2019-01-08T05:28:45.810Z,889.44
2019-01-08T05:29:45.786Z,889.38
2019-01-08T05:30:45.767Z,889.38
2019-01-08T05:31:45.753Z,889.37
2019-01-08T05:32:45.733Z,889.37
2019-01-08T05:33:45.711Z,889.32
2019-01-08T05:34:45.696Z,889.30
2019-01-08T05:35:45.674Z,889.30
2019-01-08T05:36:45.655Z,889.28
2019-01-08T05:37:45.643Z,889.26
2019-01-08T05:38:45.618Z,889.31
2019-01-08T05:39:45.598Z,889.26
2019-01-08T05:40:45.582Z,889.25
2019-01-08T05:41:45.825Z,889.18
2019-01-08T05:42:45.542Z,889.18
2019-01-08T05:43:45.524Z,889.16
2019-01-08T05:44:45.508Z,889.12
2019-01-08T05:45:45.484Z,889.09
2019-01-08T05:46:45.466Z,889.06
2019-01-08T05:47:45.524Z,889.05
2019-01-08T05:48:45.423Z,889.03
2019-01-08T05:49:45.407Z,889.02
2019-01-08T05:50:45.387Z,889.05
2019-01-08T05:51:45.367Z,889.04
2019-01-08T05:52:45.347Z,888.98
2019-01-08T05:53:45.331Z,888.96
2019-01-08T05:54:45.308Z,888.99
2019-01-08T05:55:45.292Z,888.99
2019-01-08T05:56:45.274Z,888.99
2019-01-08T05:57:45.252Z,888.99
2019-01-08T05:58:45.236Z,889.01
2019-01-08T05:59:45.213Z,888.99
2019-01-08T06:00:45.204Z,889.02
2019-01-08T06:01:45.176Z,889.03
2019-01-08T06:02:45.156Z,888.95
2019-01-08T06:03:45.137Z,888.97
2019-01-08T06:04:45.122Z,889.00
2019-01-08T06:05:45.100Z,888.93
2019-01-08T06:06:45.076Z,888.92
2019-01-08T06:07:45.066Z,888.93
2019-01-08T06:08:45.044Z,888.93
2019-01-08T06:09:45.026Z,888.92
2019-01-08T06:10:45.003Z,888.95
2019-01-08T06:11:44.979Z,888.99
2019-01-08T06:12:44.969Z,888.95
2019-01-08T06:13:44.947Z,888.96
2019-01-08T06:14:44.926Z,888.94
2019-01-08T06:15:44.911Z,888.92
2019-01-08T06:16:44.898Z,888.90
2019-01-08T06:17:44.872Z,888.88
2019-01-08T06:18:44.859Z,888.88
2019-01-08T06:19:44.831Z,888.91
2019-01-08T06:20:44.809Z,888.95
2019-01-08T06:21:44.791Z,888.97
2019-01-08T06:22:44.769Z,888.99
2019-01-08T06:23:44.752Z,888.97
2019-01-08T06:24:44.733Z,888.97
2019-01-08T06:25:44.713Z,888.98
2019-01-08T06:26:44.688Z,888.99
2019-01-08T06:27:44.674Z,888.98
2019-01-08T06:28:44.671Z,888.99
2019-01-08T06:29:44.636Z,889.03
2019-01-08T06:30:44.617Z,889.01
2019-01-08T06:31:44.597Z,888.98
2019-01-08T06:32:44.595Z,888.97
2019-01-08T06:33:44.569Z,888.99
2019-01-08T06:34:44.540Z,888.96
2019-01-08T06:35:44.518Z,888.92
2019-01-08T06:36:44.510Z,888.90
2019-01-08T06:37:44.486Z,888.90
2019-01-08T06:38:44.462Z,888.91
2019-01-08T06:39:44.447Z,888.88
2019-01-08T06:40:44.425Z,888.88
2019-01-08T06:41:44.425Z,888.90
2019-01-08T06:42:44.387Z,888.93
2019-01-08T06:43:44.365Z,888.91
2019-01-08T06:44:44.351Z,888.84
2019-01-08T06:45:44.328Z,888.88
2019-01-08T06:46:44.303Z,888.88
2019-01-08T06:47:44.289Z,888.88
2019-01-08T06:48:44.271Z,888.90
2019-01-08T06:49:44.247Z,888.84
2019-01-08T06:50:44.232Z,888.78
2019-01-08T06:51:44.210Z,888.79
2019-01-08T06:52:44.194Z,888.82
2019-01-08T06:53:44.179Z,888.78
2019-01-08T06:54:44.188Z,888.77
2019-01-08T06:55:44.140Z,888.73
2019-01-08T06:56:44.113Z,888.70
2019-01-08T06:57:44.096Z,888.71
2019-01-08T06:58:44.079Z,888.74
2019-01-08T06:59:44.057Z,888.74
2019-01-08T07:00:44.037Z,888.72
2019-01-08T07:01:44.020Z,888.66
2019-01-08T07:02:44.006Z,888.67
2019-01-08T07:03:43.984Z,888.71
2019-01-08T07:04:43.964Z,888.67
2019-01-08T07:05:43.954Z,888.66
2019-01-08T07:06:43.919Z,888.59
2019-01-08T07:07:43.907Z,888.59
2019-01-08T07:08:43.883Z,888.60
2019-01-08T07:09:43.865Z,888.59
2019-01-08T07:10:43.842Z,888.58
2019-01-08T07:11:43.827Z,888.56
2019-01-08T07:12:43.851Z,888.55
2019-01-08T07:13:43.789Z,888.52
2019-01-08T07:14:43.770Z,888.55
2019-01-08T07:15:43.748Z,888.52
2019-01-08T07:16:43.736Z,888.48
2019-01-08T07:17:43.710Z,888.45
2019-01-08T07:18:43.697Z,888.46
2019-01-08T07:19:43.672Z,888.46
2019-01-08T07:20:43.650Z,888.48
2019-01-08T07:21:43.633Z,888.45
2019-01-08T07:22:43.615Z,888.40
2019-01-08T07:23:43.591Z,888.37
2019-01-08T07:24:43.613Z,888.36
2019-01-08T07:25:43.555Z,888.42
2019-01-08T07:26:43.539Z,888.39
2019-01-08T07:27:43.517Z,888.40
2019-01-08T07:28:43.495Z,888.37
2019-01-08T07:29:43.475Z,888.37
2019-01-08T07:30:43.459Z,888.35
2019-01-08T07:31:43.440Z,888.32
2019-01-08T07:32:43.419Z,888.35
2019-01-08T07:33:43.406Z,888.32
2019-01-08T07:34:43.377Z,888.28
2019-01-08T07:35:43.455Z,888.28
2019-01-08T07:36:43.348Z,888.31
2019-01-08T07:37:43.327Z,888.35
2019-01-08T07:38:43.309Z,888.35
2019-01-08T07:39:43.286Z,888.35
2019-01-08T07:40:43.270Z,888.31
2019-01-08T07:41:43.252Z,888.27
2019-01-08T07:42:43.232Z,888.24
2019-01-08T07:43:43.208Z,888.24
2019-01-08T07:44:43.188Z,888.24
2019-01-08T07:45:43.172Z,888.24
2019-01-08T07:46:43.157Z,888.19
2019-01-08T07:47:43.131Z,888.20
2019-01-08T07:48:43.114Z,888.19
2019-01-08T07:49:43.095Z,888.22
2019-01-08T07:50:43.083Z,888.22
2019-01-08T07:51:43.052Z,888.19
2019-01-08T07:52:43.037Z,888.13
2019-01-08T07:53:43.015Z,888.10
2019-01-08T07:54:42.999Z,888.12
2019-01-08T07:55:42.991Z,888.09
2019-01-08T07:56:42.961Z,888.02
2019-01-08T07:57:42.942Z,888.00
2019-01-08T07:58:42.923Z,887.97
2019-01-08T07:59:42.904Z,887.93
2019-01-08T08:00:49.992Z,887.90
2019-01-08T08:01:42.869Z,887.85
2019-01-08T08:02:42.843Z,887.84
2019-01-08T08:03:42.821Z,887.83
2019-01-08T08:04:47.489Z,887.77
2019-01-08T08:05:42.786Z,887.80
2019-01-08T08:06:42.764Z,887.78
2019-01-08T08:07:42.749Z,887.76
2019-01-08T08:08:42.738Z,887.77
2019-01-08T08:09:42.712Z,887.74
2019-01-08T08:10:42.690Z,887.72
2019-01-08T08:11:42.675Z,887.66
2019-01-08T08:12:42.651Z,887.65
2019-01-08T08:13:42.640Z,887.70
2019-01-08T08:14:42.615Z,887.78
2019-01-08T08:15:42.599Z,887.77
2019-01-08T08:16:42.575Z,887.72
2019-01-08T08:17:42.563Z,887.72
2019-01-08T08:18:42.542Z,887.70
2019-01-08T08:19:42.522Z,887.70
2019-01-08T08:20:42.503Z,887.72
2019-01-08T08:21:42.485Z,887.70
2019-01-08T08:22:42.462Z,887.70
2019-01-08T08:23:42.446Z,887.73
2019-01-08T08:24:42.426Z,887.73
2019-01-08T08:25:42.410Z,887.70
2019-01-08T08:26:42.393Z,887.65
2019-01-08T08:27:42.367Z,887.63
2019-01-08T08:28:42.353Z,887.59
2019-01-08T08:29:42.333Z,887.58
2019-01-08T08:30:42.317Z,887.55
2019-01-08T08:31:42.295Z,887.57
2019-01-08T08:32:42.277Z,887.52
2019-01-08T08:33:42.259Z,887.46
2019-01-08T08:34:42.236Z,887.43
2019-01-08T08:35:42.225Z,887.42
2019-01-08T08:36:42.202Z,887.47
2019-01-08T08:37:42.183Z,887.58
2019-01-08T08:38:42.157Z,887.52
2019-01-08T08:39:42.146Z,887.50
2019-01-08T08:40:42.121Z,887.45
2019-01-08T08:41:42.103Z,887.43
2019-01-08T08:42:42.088Z,887.43
2019-01-08T08:43:42.073Z,887.39
2019-01-08T08:44:42.050Z,887.40
2019-01-08T08:45:42.028Z,887.41
2019-01-08T08:46:42.010Z,887.39
2019-01-08T08:47:41.998Z,887.41
2019-01-08T08:48:41.978Z,887.39
2019-01-08T08:49:41.960Z,887.39
2019-01-08T08:50:41.933Z,887.36
2019-01-08T08:51:41.920Z,887.34
2019-01-08T08:52:41.899Z,887.36
2019-01-08T08:53:41.885Z,887.36
2019-01-08T08:54:41.861Z,887.27
2019-01-08T08:55:41.847Z,887.28
2019-01-08T08:56:41.829Z,887.30
2019-01-08T08:57:41.811Z,887.35
2019-01-08T08:58:41.792Z,887.31
2019-01-08T08:59:41.773Z,887.34
2019-01-08T09:00:41.748Z,887.27
2019-01-08T09:01:41.734Z,887.32
2019-01-08T09:02:41.715Z,887.31
2019-01-08T09:03:41.698Z,887.27
2019-01-08T09:04:41.678Z,887.29
2019-01-08T09:05:41.663Z,887.29
2019-01-08T09:06:41.647Z,887.33
2019-01-08T09:07:41.625Z,887.36
2019-01-08T09:08:41.603Z,887.35
2019-01-08T09:09:41.586Z,887.37
2019-01-08T09:10:41.566Z,887.46
2019-01-08T09:11:41.556Z,887.40
2019-01-08T09:12:41.535Z,887.31
2019-01-08T09:13:41.517Z,887.32
2019-01-08T09:14:41.499Z,887.35
2019-01-08T09:15:41.485Z,887.34
2019-01-08T09:16:41.461Z,887.36
2019-01-08T09:17:41.453Z,887.29
2019-01-08T09:18:41.423Z,887.34
2019-01-08T09:19:41.406Z,887.32
2019-01-08T09:20:41.379Z,887.31
2019-01-08T09:21:41.469Z,887.29
2019-01-08T09:22:41.348Z,887.28
2019-01-08T09:23:41.329Z,887.28
2019-01-08T09:24:41.312Z,887.29
2019-01-08T09:25:41.298Z,887.27
2019-01-08T09:26:41.279Z,887.25
2019-01-08T09:27:41.260Z,887.26
2019-01-08T09:28:41.236Z,887.27
2019-01-08T09:29:41.226Z,887.23
2019-01-08T09:30:41.204Z,887.22
2019-01-08T09:31:41.181Z,887.26
2019-01-08T09:32:41.165Z,887.27
2019-01-08T09:33:41.151Z,887.29
2019-01-08T09:34:41.133Z,887.32
2019-01-08T09:35:41.113Z,887.29
2019-01-08T09:36:41.093Z,887.28
2019-01-08T09:37:41.077Z,887.27
2019-01-08T09:38:41.060Z,887.33
2019-01-08T09:39:41.080Z,887.29
2019-01-08T09:40:41.024Z,887.24
2019-01-08T09:41:41.004Z,887.26
2019-01-08T09:42:42.756Z,887.31
2019-01-08T09:43:40.974Z,887.35
2019-01-08T09:44:40.950Z,887.25
2019-01-08T09:45:40.932Z,887.25
2019-01-08T09:46:40.913Z,887.26
2019-01-08T09:47:40.895Z,887.26
2019-01-08T09:48:40.877Z,887.28
2019-01-08T09:49:40.859Z,887.32
2019-01-08T09:50:40.839Z,887.29
2019-01-08T09:51:40.823Z,887.19
2019-01-08T09:52:40.806Z,887.16
2019-01-08T09:53:40.791Z,887.16
2019-01-08T09:54:40.772Z,887.29
2019-01-08T09:55:40.748Z,887.32
2019-01-08T09:56:40.732Z,887.31
2019-01-08T09:57:40.714Z,887.43
2019-01-08T09:58:40.700Z,887.34
2019-01-08T09:59:40.678Z,887.33
2019-01-08T10:00:40.663Z,887.31
2019-01-08T10:01:40.639Z,887.25
2019-01-08T10:02:40.619Z,887.27
2019-01-08T10:03:40.597Z,887.26
2019-01-08T10:04:40.583Z,887.23
2019-01-08T10:05:40.569Z,887.17
2019-01-08T10:06:40.548Z,887.16
2019-01-08T10:07:40.542Z,887.12
2019-01-08T10:08:40.513Z,887.13
2019-01-08T10:09:40.489Z,887.11
2019-01-08T10:10:40.476Z,887.05
2019-01-08T10:11:40.452Z,887.05
2019-01-08T10:12:40.480Z,887.09
2019-01-08T10:13:40.422Z,887.07
2019-01-08T10:14:40.403Z,887.03
2019-01-08T10:15:40.390Z,887.04
2019-01-08T10:16:40.365Z,886.99
2019-01-08T10:17:40.343Z,886.97
2019-01-08T10:18:40.331Z,886.98
2019-01-08T10:19:40.312Z,886.98
2019-01-08T10:20:40.296Z,886.95
2019-01-08T10:21:40.276Z,886.95
2019-01-08T10:22:40.255Z,886.91
2019-01-08T10:23:40.236Z,886.89
2019-01-08T10:24:40.224Z,886.88
2019-01-08T10:25:40.210Z,886.90
2019-01-08T10:26:40.187Z,886.86
2019-01-08T10:27:40.177Z,886.89
2019-01-08T10:28:40.148Z,886.91
2019-01-08T10:29:40.129Z,886.86
2019-01-08T10:30:40.113Z,886.86
2019-01-08T10:31:40.097Z,886.82
2019-01-08T10:32:40.077Z,886.85
2019-01-08T10:33:40.057Z,886.90
2019-01-08T10:34:40.040Z,886.91
2019-01-08T10:35:40.022Z,886.83
2019-01-08T10:36:40.006Z,886.73
2019-01-08T10:37:39.990Z,886.78
2019-01-08T10:38:39.964Z,886.81
2019-01-08T10:39:39.948Z,886.80
2019-01-08T10:40:39.936Z,886.78
2019-01-08T10:41:39.916Z,886.79
2019-01-08T10:42:39.895Z,886.78
2019-01-08T10:43:39.879Z,886.75
2019-01-08T10:44:39.866Z,886.75
2019-01-08T10:45:39.844Z,886.75
2019-01-08T10:46:39.831Z,886.72
2019-01-08T10:47:39.814Z,886.72
2019-01-08T10:48:39.788Z,886.70
2019-01-08T10:49:39.770Z,886.60
2019-01-08T10:50:39.756Z,886.67
2019-01-08T10:51:39.733Z,886.68
2019-01-08T10:52:39.714Z,886.70
2019-01-08T10:53:39.705Z,886.73
2019-01-08T10:54:39.683Z,886.71
2019-01-08T10:55:39.665Z,886.72
2019-01-08T10:56:39.647Z,886.71
2019-01-08T10:57:39.631Z,886.69
2019-01-08T10:58:39.613Z,886.68
2019-01-08T10:59:39.591Z,886.66
2019-01-08T11:00:39.576Z,886.70
2019-01-08T11:01:40.607Z,886.70
2019-01-08T11:02:39.541Z,886.67
2019-01-08T11:03:39.524Z,886.63
2019-01-08T11:04:39.508Z,886.57
2019-01-08T11:05:39.487Z,886.52
2019-01-08T11:06:39.465Z,886.49
2019-01-08T11:07:39.447Z,886.49
2019-01-08T11:08:39.431Z,886.51
2019-01-08T11:09:39.418Z,886.47
2019-01-08T11:10:39.397Z,886.50
2019-01-08T11:11:39.398Z,886.46
2019-01-08T11:12:39.361Z,886.45
2019-01-08T11:13:39.345Z,886.43
2019-01-08T11:14:39.324Z,886.47
2019-01-08T11:15:39.310Z,886.41
2019-01-08T11:16:39.296Z,886.42
2019-01-08T11:17:39.272Z,886.37
2019-01-08T11:18:39.259Z,886.39
2019-01-08T11:19:39.241Z,886.40
2019-01-08T11:20:39.223Z,886.38
2019-01-08T11:21:39.203Z,886.36
2019-01-08T11:22:39.189Z,886.34
2019-01-08T11:23:39.168Z,886.36
2019-01-08T11:24:39.151Z,886.38
2019-01-08T11:25:39.132Z,886.36
2019-01-08T11:26:39.113Z,886.31
2019-01-08T11:27:39.099Z,886.29
2019-01-08T11:28:39.086Z,886.25
2019-01-08T11:29:39.070Z,886.22
2019-01-08T11:30:39.045Z,886.22
2019-01-08T11:31:39.102Z,886.25
2019-01-08T11:32:39.016Z,886.21
2019-01-08T11:33:38.997Z,886.18
2019-01-08T11:34:39.950Z,886.16
2019-01-08T11:35:42.300Z,886.17
2019-01-08T11:36:38.943Z,886.16
2019-01-08T11:37:38.925Z,886.17
2019-01-08T11:38:38.910Z,886.20
2019-01-08T11:39:38.890Z,886.14
2019-01-08T11:40:38.870Z,886.18
2019-01-08T11:41:38.861Z,886.20
2019-01-08T11:42:38.837Z,886.10
2019-01-08T11:43:38.821Z,886.11
2019-01-08T11:44:38.801Z,886.09
2019-01-08T11:45:38.784Z,886.07
2019-01-08T11:46:38.769Z,886.03
2019-01-08T11:47:38.745Z,886.01
2019-01-08T11:48:38.728Z,886.01
2019-01-08T11:49:38.735Z,885.98
2019-01-08T11:50:38.697Z,886.00
2019-01-08T11:51:38.716Z,886.06
2019-01-08T11:52:38.662Z,886.02
2019-01-08T11:53:38.640Z,885.93
2019-01-08T11:54:41.198Z,885.84
2019-01-08T11:55:38.617Z,885.83
2019-01-08T11:56:38.596Z,885.80
2019-01-08T11:57:38.575Z,885.79
2019-01-08T11:58:38.561Z,885.83
2019-01-08T11:59:38.551Z,885.79
2019-01-08T12:00:38.521Z,885.78
2019-01-08T12:01:38.505Z,885.77
2019-01-08T12:02:38.490Z,885.73
2019-01-08T12:03:38.474Z,885.69
2019-01-08T12:04:38.457Z,885.64
2019-01-08T12:05:38.460Z,885.60
2019-01-08T12:06:38.426Z,885.58
2019-01-08T12:07:38.409Z,885.56
2019-01-08T12:08:38.386Z,885.56
2019-01-08T12:09:38.370Z,885.49
2019-01-08T12:10:38.351Z,885.50
2019-01-08T12:11:38.331Z,885.51
2019-01-08T12:12:38.314Z,885.49
2019-01-08T12:13:38.297Z,885.51
2019-01-08T12:14:38.281Z,885.45
2019-01-08T12:15:38.259Z,885.39
2019-01-08T12:16:38.243Z,885.42
2019-01-08T12:17:38.227Z,885.35
2019-01-08T12:18:38.218Z,885.34
2019-01-08T12:19:38.194Z,885.36
2019-01-08T12:20:38.176Z,885.36
2019-01-08T12:21:38.162Z,885.36
2019-01-08T12:22:40.985Z,885.35
2019-01-08T12:23:38.126Z,885.30
2019-01-08T12:24:38.103Z,885.26
2019-01-08T12:25:38.085Z,885.27
2019-01-08T12:26:38.066Z,885.28
2019-01-08T12:27:38.054Z,885.26
2019-01-08T12:28:38.038Z,885.27